createdAt,value
2023-04-10T00:00:45.761Z,101442.59
2023-04-10T00:03:14.153Z,101439.16
2023-04-10T00:05:42.318Z,101441.81
2023-04-10T00:08:10.551Z,101438.44
2023-04-10T00:10:38.814Z,101442.81
2023-04-10T00:13:08.402Z,101435.88
2023-04-10T00:15:36.426Z,101434.16
2023-04-10T00:18:04.678Z,101434.25
2023-04-10T00:20:32.860Z,101436.09
2023-04-10T00:23:00.899Z,101436.22
2023-04-10T00:25:29.341Z,101439.81
2023-04-10T00:27:57.331Z,101446.94
2023-04-10T00:30:26.742Z,101442.50
2023-04-10T00:32:55.140Z,101444.38
2023-04-10T00:35:23.289Z,101433.00
2023-04-10T00:37:51.436Z,101425.19
2023-04-10T00:40:20.096Z,101433.22
2023-04-10T00:42:50.064Z,101428.03
2023-04-10T00:45:20.450Z,101424.59
2023-04-10T00:47:50.331Z,101415.94
2023-04-10T00:50:18.785Z,101411.50
2023-04-10T00:52:46.996Z,101408.03
2023-04-10T00:55:15.929Z,101413.31
2023-04-10T00:57:46.316Z,101416.03
2023-04-10T01:00:15.445Z,101418.66
2023-04-10T01:02:44.053Z,101412.50
2023-04-10T01:05:14.263Z,101416.06
2023-04-10T01:07:55.505Z,101410.78
2023-04-10T01:10:31.690Z,101408.22
2023-04-10T01:13:09.818Z,101406.63
2023-04-10T01:15:45.102Z,101410.25
2023-04-10T01:18:20.484Z,101412.09
2023-04-10T01:20:50.135Z,101411.28
2023-04-10T01:23:44.365Z,101406.09
2023-04-10T01:26:14.530Z,101406.16
2023-04-10T01:29:01.393Z,101404.56
2023-04-10T01:31:38.541Z,101406.41
2023-04-10T01:34:10.624Z,101404.75
2023-04-10T01:36:46.885Z,101414.69
2023-04-10T01:39:18.321Z,101417.59
2023-04-10T01:41:48.996Z,101409.00
2023-04-10T01:44:22.611Z,101406.53
2023-04-10T01:46:51.563Z,101404.91
2023-04-10T01:49:20.871Z,101406.00
2023-04-10T01:51:50.354Z,101406.25
2023-04-10T01:54:19.755Z,101408.25
2023-04-10T01:56:48.143Z,101411.94
2023-04-10T01:59:18.307Z,101410.22
2023-04-10T02:01:46.960Z,101407.56
2023-04-10T02:04:15.641Z,101404.13
2023-04-10T02:06:52.567Z,101406.75
2023-04-10T02:09:32.154Z,101404.16
2023-04-10T02:12:05.767Z,101407.81
2023-04-10T02:14:39.456Z,101396.53
2023-04-10T02:17:09.358Z,101401.06
2023-04-10T02:19:39.644Z,101401.84
2023-04-10T02:22:08.722Z,101401.81
2023-04-10T02:24:36.799Z,101399.84
2023-04-10T02:27:05.401Z,101394.44
2023-04-10T02:29:34.988Z,101397.94
2023-04-10T02:32:04.945Z,101395.28
2023-04-10T02:34:33.104Z,101395.22
2023-04-10T02:37:01.095Z,101398.56
2023-04-10T02:39:30.295Z,101403.78
2023-04-10T02:41:58.601Z,101411.72
2023-04-10T02:44:27.097Z,101414.47
2023-04-10T02:46:56.600Z,101410.09
2023-04-10T02:49:25.033Z,101411.06
2023-04-10T02:51:53.025Z,101418.12
2023-04-10T02:54:21.782Z,101414.69
2023-04-10T02:56:50.076Z,101415.69
2023-04-10T02:59:18.090Z,101413.19
2023-04-10T03:01:47.984Z,101419.41
2023-04-10T03:04:17.942Z,101422.97
2023-04-10T03:06:46.411Z,101422.28
2023-04-10T03:09:14.492Z,101424.19
2023-04-10T03:11:42.999Z,101425.09
2023-04-10T03:14:11.155Z,101416.31
2023-04-10T03:16:39.377Z,101419.81
2023-04-10T03:19:07.650Z,101417.28
2023-04-10T03:21:37.054Z,101412.09
2023-04-10T03:24:06.111Z,101410.41
2023-04-10T03:26:34.713Z,101418.28
2023-04-10T03:29:02.872Z,101410.34
2023-04-10T03:31:31.247Z,101413.00
2023-04-10T03:33:59.932Z,101415.69
2023-04-10T03:36:28.430Z,101414.78
2023-04-10T03:38:57.736Z,101417.41
2023-04-10T03:41:26.425Z,101413.09
2023-04-10T03:43:54.814Z,101413.97
2023-04-10T03:46:23.423Z,101414.81
2023-04-10T03:48:54.183Z,101407.81
2023-04-10T03:51:24.512Z,101408.78
2023-04-10T03:53:53.408Z,101411.47
2023-04-10T03:56:23.059Z,101406.09
2023-04-10T03:58:51.111Z,101405.19
2023-04-10T04:01:22.168Z,101407.00
2023-04-10T04:03:55.979Z,101409.75
2023-04-10T04:06:25.635Z,101403.75
2023-04-10T04:08:54.396Z,101400.56
2023-04-10T04:11:24.332Z,101397.25
2023-04-10T04:13:53.024Z,101403.50
2023-04-10T04:16:24.751Z,101402.72
2023-04-10T04:18:52.955Z,101400.09
2023-04-10T04:21:21.191Z,101403.50
2023-04-10T04:23:49.741Z,101398.22
2023-04-10T04:26:25.063Z,101405.22
2023-04-10T04:28:53.789Z,101412.31
2023-04-10T04:31:22.118Z,101412.31
2023-04-10T04:33:50.305Z,101415.88
2023-04-10T04:36:21.274Z,101415.81
2023-04-10T04:38:52.882Z,101414.03
2023-04-10T04:41:25.651Z,101413.94
2023-04-10T04:43:55.957Z,101421.72
2023-04-10T04:46:24.643Z,101415.47
2023-04-10T04:48:53.127Z,101415.38
2023-04-10T04:51:21.521Z,101415.31
2023-04-10T04:53:50.013Z,101412.56
2023-04-10T04:56:22.704Z,101422.22
2023-04-10T04:58:52.509Z,101421.25
2023-04-10T05:01:22.264Z,101414.13
2023-04-10T05:03:52.053Z,101416.53
2023-04-10T05:06:21.691Z,101410.22
2023-04-10T05:08:50.086Z,101407.44
2023-04-10T05:11:19.841Z,101402.81
2023-04-10T05:13:52.189Z,101411.41
2023-04-10T05:16:23.199Z,101398.88
2023-04-10T05:18:51.934Z,101404.81
2023-04-10T05:21:20.312Z,101409.03
2023-04-10T05:23:49.651Z,101411.41
2023-04-10T05:26:18.213Z,101413.84
2023-04-10T05:28:47.440Z,101410.16
2023-04-10T05:31:17.071Z,101416.13
2023-04-10T05:33:45.899Z,101416.63
2023-04-10T05:36:14.419Z,101412.69
2023-04-10T05:38:42.960Z,101415.00
2023-04-10T05:41:11.983Z,101419.00
2023-04-10T05:43:39.976Z,101420.37
2023-04-10T05:46:08.375Z,101420.13
2023-04-10T05:48:40.189Z,101418.97
2023-04-10T05:51:11.340Z,101424.84
2023-04-10T05:53:39.370Z,101432.47
2023-04-10T05:56:12.270Z,101425.09
2023-04-10T05:58:40.769Z,101422.06
2023-04-10T06:01:09.026Z,101424.34
2023-04-10T06:03:39.259Z,101430.25
2023-04-10T06:06:08.856Z,101427.13
2023-04-10T06:08:36.942Z,101431.13
2023-04-10T06:11:05.469Z,101424.44
2023-04-10T06:13:36.112Z,101430.16
2023-04-10T06:16:04.435Z,101416.56
2023-04-10T06:18:32.783Z,101420.34
2023-04-10T06:21:02.715Z,101418.16
2023-04-10T06:23:31.010Z,101411.41
2023-04-10T06:25:59.590Z,101418.62
2023-04-10T06:28:27.971Z,101411.78
2023-04-10T06:30:56.360Z,101406.63
2023-04-10T06:33:29.333Z,101409.38
2023-04-10T06:35:58.326Z,101407.69
2023-04-10T06:38:28.114Z,101404.44
2023-04-10T06:40:55.990Z,101408.66
2023-04-10T06:43:23.914Z,101404.94
2023-04-10T06:45:52.075Z,101405.06
2023-04-10T06:48:20.427Z,101405.03
2023-04-10T06:50:48.412Z,101406.78
2023-04-10T06:53:16.600Z,101408.62
2023-04-10T06:55:45.892Z,101401.31
2023-04-10T06:58:13.945Z,101401.06
2023-04-10T07:00:42.308Z,101410.09
2023-04-10T07:03:10.392Z,101404.19
2023-04-10T07:05:40.127Z,101411.41
2023-04-10T07:08:10.539Z,101408.53
2023-04-10T07:10:39.531Z,101409.22
2023-04-10T07:13:08.888Z,101410.75
2023-04-10T07:15:37.054Z,101408.47
2023-04-10T07:18:07.791Z,101412.53
2023-04-10T07:20:35.844Z,101417.03
2023-04-10T07:23:04.086Z,101411.28
2023-04-10T07:25:32.151Z,101406.94
2023-04-10T07:28:00.135Z,101413.78
2023-04-10T07:30:29.939Z,101407.19
2023-04-10T07:32:58.335Z,101406.69
2023-04-10T07:35:27.116Z,101407.53
2023-04-10T07:37:55.640Z,101408.91
2023-04-10T07:40:23.626Z,101402.56
2023-04-10T07:42:53.806Z,101402.19
2023-04-10T07:45:22.335Z,101399.56
2023-04-10T07:47:51.709Z,101403.31
2023-04-10T07:50:19.902Z,101403.97
2023-04-10T07:52:48.194Z,101398.12
2023-04-10T07:55:16.426Z,101387.97
2023-04-10T07:57:44.468Z,101389.97
2023-04-10T08:00:14.295Z,101384.38
2023-04-10T08:02:43.885Z,101385.94
2023-04-10T08:05:13.403Z,101382.66
2023-04-10T08:07:41.508Z,101383.28
2023-04-10T08:10:10.744Z,101380.59
2023-04-10T08:12:38.958Z,101372.75
2023-04-10T08:15:08.665Z,101375.25
2023-04-10T08:17:37.009Z,101363.81
2023-04-10T08:20:06.583Z,101373.13
2023-04-10T08:22:35.975Z,101361.47
2023-04-10T08:25:04.658Z,101354.84
2023-04-10T08:27:32.726Z,101346.91
2023-04-10T08:30:00.840Z,101346.66
2023-04-10T08:32:30.604Z,101344.47
2023-04-10T08:34:58.820Z,101342.00
2023-04-10T08:37:27.536Z,101348.00
2023-04-10T08:39:57.298Z,101340.66
2023-04-10T08:42:25.939Z,101340.12
2023-04-10T08:44:55.272Z,101332.88
2023-04-10T08:47:28.846Z,101332.50
2023-04-10T08:49:58.734Z,101334.66
2023-04-10T08:52:28.802Z,101326.16
2023-04-10T08:55:00.699Z,101330.72
2023-04-10T08:57:30.514Z,101325.50
2023-04-10T09:00:04.278Z,101328.03
2023-04-10T09:02:42.838Z,101320.56
2023-04-10T09:05:13.444Z,101326.84
2023-04-10T09:07:42.106Z,101330.47
2023-04-10T09:10:11.763Z,101333.41
2023-04-10T09:12:49.732Z,101324.34
2023-04-10T09:15:18.188Z,101322.38
2023-04-10T09:17:57.416Z,101319.03
2023-04-10T09:20:27.829Z,101303.34
2023-04-10T09:22:55.969Z,101306.81
2023-04-10T09:25:33.982Z,101307.69
2023-04-10T09:28:04.682Z,101304.19
2023-04-10T09:30:41.099Z,101293.84
2023-04-10T09:33:23.669Z,101300.38
2023-04-10T09:35:51.847Z,101294.09
2023-04-10T09:38:22.339Z,101289.44
2023-04-10T09:40:53.639Z,101290.03
2023-04-10T09:43:28.015Z,101285.78
2023-04-10T09:45:57.422Z,101284.47
2023-04-10T09:48:27.618Z,101279.50
2023-04-10T09:50:55.652Z,101274.56
2023-04-10T09:53:23.748Z,101263.66
2023-04-10T09:55:53.362Z,101266.53
2023-04-10T09:58:22.134Z,101269.84
2023-04-10T10:00:50.577Z,101265.75
2023-04-10T10:03:21.116Z,101262.00
2023-04-10T10:05:53.479Z,101248.28
2023-04-10T10:08:23.836Z,101250.53
2023-04-10T10:10:55.903Z,101232.66
2023-04-10T10:13:29.289Z,101237.91
2023-04-10T10:16:07.503Z,101233.94
2023-04-10T10:18:45.087Z,101226.84
2023-04-10T10:21:16.607Z,101226.28
2023-04-10T10:23:46.322Z,101218.00
2023-04-10T10:26:16.295Z,101206.63
2023-04-10T10:28:47.587Z,101215.19
2023-04-10T10:31:17.598Z,101202.94
2023-04-10T10:33:47.101Z,101202.94
2023-04-10T10:36:17.101Z,101198.88
2023-04-10T10:38:54.707Z,101186.91
2023-04-10T10:41:29.837Z,101195.12
2023-04-10T10:44:09.657Z,101188.88
2023-04-10T10:46:43.994Z,101188.59
2023-04-10T10:49:13.950Z,101179.66
2023-04-10T10:51:46.709Z,101179.78
2023-04-10T10:54:29.056Z,101171.41
2023-04-10T10:56:58.618Z,101164.34
2023-04-10T10:59:58.297Z,101166.47
2023-04-10T11:02:27.244Z,101162.50
2023-04-10T11:04:55.949Z,101165.94
2023-04-10T11:08:02.978Z,101161.06
2023-04-10T11:11:01.576Z,101149.94
2023-04-10T11:13:31.055Z,101150.12
2023-04-10T11:16:01.387Z,101146.91
2023-04-10T11:19:13.353Z,101138.87
2023-04-10T11:22:03.540Z,101131.75
2023-04-10T11:24:59.574Z,101126.53
2023-04-10T11:27:46.421Z,101124.44
2023-04-10T11:30:42.279Z,101126.31
2023-04-10T11:33:18.899Z,101114.53
2023-04-10T11:35:47.416Z,101117.56
2023-04-10T11:38:18.169Z,101113.97
2023-04-10T11:41:02.915Z,101113.59
2023-04-10T11:43:31.776Z,101104.28
2023-04-10T11:46:03.095Z,101115.75
2023-04-10T11:48:33.665Z,101107.25
2023-04-10T11:51:09.468Z,101099.44
2023-04-10T11:53:43.212Z,101091.63
2023-04-10T11:56:22.608Z,101090.50
2023-04-10T11:58:54.895Z,101081.66
2023-04-10T12:01:24.788Z,101080.25
2023-04-10T12:03:55.265Z,101064.13
2023-04-10T12:06:25.952Z,101069.47
2023-04-10T12:09:01.723Z,101057.81
2023-04-10T12:11:35.361Z,101055.38
2023-04-10T12:14:03.878Z,101039.63
2023-04-10T12:16:33.726Z,101050.13
2023-04-10T12:19:01.764Z,101034.53
2023-04-10T12:21:31.205Z,101030.25
2023-04-10T12:23:59.259Z,101025.06
2023-04-10T12:26:27.343Z,101021.84
2023-04-10T12:28:59.021Z,101023.09
2023-04-10T12:31:31.318Z,101018.94
2023-04-10T12:34:01.170Z,101011.56
2023-04-10T12:36:30.561Z,101000.28
2023-04-10T12:38:59.233Z,101003.09
2023-04-10T12:41:29.673Z,100993.25
2023-04-10T12:44:10.874Z,100996.84
2023-04-10T12:46:41.752Z,100983.13
2023-04-10T12:49:12.095Z,100980.59
2023-04-10T12:51:47.136Z,100976.88
2023-04-10T12:54:32.154Z,100973.97
2023-04-10T12:57:01.506Z,100964.53
2023-04-10T12:59:31.907Z,100964.00
2023-04-10T13:02:00.135Z,100957.91
2023-04-10T13:04:31.308Z,100952.69
2023-04-10T13:07:02.808Z,100941.66
2023-04-10T13:09:31.224Z,100937.97
2023-04-10T13:11:59.305Z,100930.78
2023-04-10T13:14:27.508Z,100930.09
2023-04-10T13:16:57.090Z,100919.63
2023-04-10T13:19:25.078Z,100907.94
2023-04-10T13:21:53.054Z,100905.09
2023-04-10T13:24:21.345Z,100896.59
2023-04-10T13:26:49.235Z,100895.25
2023-04-10T13:29:17.226Z,100890.50
2023-04-10T13:31:45.601Z,100876.78
2023-04-10T13:34:14.911Z,100876.63
2023-04-10T13:36:43.099Z,100879.53
2023-04-10T13:39:11.472Z,100868.31
2023-04-10T13:41:39.501Z,100862.38
2023-04-10T13:44:09.177Z,100861.66
2023-04-10T13:46:37.522Z,100855.62
2023-04-10T13:49:05.510Z,100850.84
2023-04-10T13:51:34.779Z,100853.87
2023-04-10T13:54:04.698Z,100856.25
2023-04-10T13:56:32.582Z,100849.84
2023-04-10T13:59:00.574Z,100845.44
2023-04-10T14:01:28.768Z,100840.03
2023-04-10T14:03:57.283Z,100834.28
2023-04-10T14:06:25.356Z,100832.88
2023-04-10T14:08:54.855Z,100826.06
2023-04-10T14:11:23.247Z,100819.75
2023-04-10T14:13:51.273Z,100813.53
2023-04-10T14:16:19.389Z,100813.53
2023-04-10T14:18:47.882Z,100807.25
2023-04-10T14:21:15.765Z,100811.47
2023-04-10T14:23:46.711Z,100816.22
2023-04-10T14:26:16.321Z,100803.37
2023-04-10T14:28:44.236Z,100799.78
2023-04-10T14:31:12.507Z,100805.53
2023-04-10T14:33:40.780Z,100798.66
2023-04-10T14:36:09.449Z,100784.59
2023-04-10T14:38:37.729Z,100779.87
2023-04-10T14:41:06.385Z,100774.28
2023-04-10T14:43:35.726Z,100765.81
2023-04-10T14:46:03.654Z,100759.53
2023-04-10T14:48:32.034Z,100755.00
2023-04-10T14:51:01.328Z,100748.38
2023-04-10T14:53:29.334Z,100748.25
2023-04-10T14:55:57.741Z,100728.63
2023-04-10T14:58:25.972Z,100729.47
2023-04-10T15:00:55.404Z,100719.31
2023-04-10T15:03:25.328Z,100717.09
2023-04-10T15:06:00.227Z,100714.72
2023-04-10T15:08:28.516Z,100716.44
2023-04-10T15:10:56.503Z,100707.94
2023-04-10T15:13:24.698Z,100701.78
2023-04-10T15:15:52.959Z,100696.44
2023-04-10T15:18:22.297Z,100696.78
2023-04-10T15:20:52.508Z,100700.00
2023-04-10T15:23:20.728Z,100697.81
2023-04-10T15:25:48.784Z,100693.56
2023-04-10T15:28:16.825Z,100681.56
2023-04-10T15:30:45.694Z,100677.47
2023-04-10T15:33:13.668Z,100674.47
2023-04-10T15:35:42.942Z,100678.50
2023-04-10T15:38:12.822Z,100672.47
2023-04-10T15:40:40.782Z,100669.91
2023-04-10T15:43:08.767Z,100676.88
2023-04-10T15:45:37.366Z,100676.56
2023-04-10T15:48:06.060Z,100674.50
2023-04-10T15:50:35.082Z,100671.31
2023-04-10T15:53:04.821Z,100668.19
2023-04-10T15:55:33.048Z,100661.91
2023-04-10T15:58:02.562Z,100655.94
2023-04-10T16:00:31.077Z,100650.41
2023-04-10T16:02:59.575Z,100644.50
2023-04-10T16:05:27.913Z,100642.31
2023-04-10T16:07:56.143Z,100633.16
2023-04-10T16:10:25.676Z,100632.84
2023-04-10T16:12:53.862Z,100635.56
2023-04-10T16:15:21.846Z,100625.56
2023-04-10T16:17:50.158Z,100618.41
2023-04-10T16:20:18.976Z,100608.47
2023-04-10T16:22:47.086Z,100608.28
2023-04-10T16:25:16.933Z,100607.09
2023-04-10T16:27:47.257Z,100606.91
2023-04-10T16:30:15.761Z,100596.09
2023-04-10T16:32:43.776Z,100588.31
2023-04-10T16:35:11.866Z,100594.06
2023-04-10T16:37:40.362Z,100577.34
2023-04-10T16:40:09.316Z,100579.16
2023-04-10T16:42:37.414Z,100579.47
2023-04-10T16:45:08.400Z,100577.53
2023-04-10T16:47:36.587Z,100572.87
2023-04-10T16:50:04.924Z,100576.22
2023-04-10T16:52:33.275Z,100562.37
2023-04-10T16:55:01.509Z,100559.88
2023-04-10T16:57:32.060Z,100542.44
2023-04-10T17:00:00.501Z,100542.31
2023-04-10T17:02:30.398Z,100547.06
2023-04-10T17:04:58.580Z,100532.41
2023-04-10T17:07:26.851Z,100533.94
2023-04-10T17:09:54.820Z,100526.94
2023-04-10T17:12:22.843Z,100531.72
2023-04-10T17:14:52.390Z,100528.56
2023-04-10T17:17:20.533Z,100523.84
2023-04-10T17:19:50.325Z,100523.88
2023-04-10T17:22:20.571Z,100519.78
2023-04-10T17:24:48.545Z,100520.28
2023-04-10T17:27:18.893Z,100510.41
2023-04-10T17:29:47.165Z,100506.22
2023-04-10T17:32:15.077Z,100497.09
2023-04-10T17:34:43.012Z,100494.44
2023-04-10T17:37:12.600Z,100494.47
2023-04-10T17:39:40.513Z,100493.34
2023-04-10T17:42:08.506Z,100481.50
2023-04-10T17:44:36.705Z,100486.03
2023-04-10T17:47:05.193Z,100482.38
2023-04-10T17:49:33.174Z,100479.69
2023-04-10T17:52:01.377Z,100481.53
2023-04-10T17:54:30.682Z,100480.69
2023-04-10T17:56:58.676Z,100477.13
2023-04-10T17:59:26.855Z,100472.75
2023-04-10T18:01:55.014Z,100473.59
2023-04-10T18:04:23.335Z,100471.47
2023-04-10T18:06:51.300Z,100463.13
2023-04-10T18:09:19.460Z,100463.38
2023-04-10T18:11:50.741Z,100462.22
2023-04-10T18:14:18.655Z,100459.12
2023-04-10T18:16:46.703Z,100456.28
2023-04-10T18:19:14.977Z,100455.81
2023-04-10T18:21:42.990Z,100452.88
2023-04-10T18:24:12.137Z,100454.37
2023-04-10T18:26:40.631Z,100458.41
2023-04-10T18:29:09.955Z,100458.53
2023-04-10T18:31:37.912Z,100462.06
2023-04-10T18:34:08.389Z,100464.06
2023-04-10T18:36:36.896Z,100457.28
2023-04-10T18:39:05.305Z,100454.28
2023-04-10T18:41:36.988Z,100454.41
2023-04-10T18:44:05.985Z,100453.25
2023-04-10T18:46:35.895Z,100460.56
2023-04-10T18:49:04.135Z,100461.09
2023-04-10T18:51:34.625Z,100456.28
2023-04-10T18:54:03.620Z,100447.78
2023-04-10T18:56:31.744Z,100446.09
2023-04-10T18:59:00.025Z,100444.13
2023-04-10T19:01:28.983Z,100437.34
2023-04-10T19:03:58.907Z,100436.87
2023-04-10T19:06:27.888Z,100424.31
2023-04-10T19:08:56.732Z,100414.38
2023-04-10T19:11:24.874Z,100413.66
2023-04-10T19:13:53.258Z,100418.69
2023-04-10T19:16:21.738Z,100414.31
2023-04-10T19:18:50.209Z,100407.34
2023-04-10T19:21:19.612Z,100401.97
2023-04-10T19:23:47.928Z,100398.56
2023-04-10T19:26:16.015Z,100383.47
2023-04-10T19:28:43.977Z,100396.63
2023-04-10T19:31:12.974Z,100392.78
2023-04-10T19:33:41.309Z,100383.94
2023-04-10T19:36:09.776Z,100380.81
2023-04-10T19:38:40.961Z,100385.59
2023-04-10T19:41:15.790Z,100375.81
2023-04-10T19:43:44.108Z,100382.38
2023-04-10T19:46:19.221Z,100380.31
2023-04-10T19:48:48.021Z,100368.28
2023-04-10T19:51:16.092Z,100362.09
2023-04-10T19:53:45.510Z,100359.50
2023-04-10T19:56:13.692Z,100358.34
2023-04-10T19:58:42.895Z,100362.69
2023-04-10T20:01:12.334Z,100363.25
2023-04-10T20:03:40.914Z,100352.53
2023-04-10T20:06:10.165Z,100345.59
2023-04-10T20:08:38.263Z,100354.03
2023-04-10T20:11:09.450Z,100352.69
2023-04-10T20:13:38.572Z,100348.69
2023-04-10T20:16:07.866Z,100348.69
2023-04-10T20:18:37.794Z,100341.78
2023-04-10T20:21:07.848Z,100330.16
2023-04-10T20:23:36.214Z,100328.91
2023-04-10T20:26:04.171Z,100326.78
2023-04-10T20:28:33.439Z,100325.66
2023-04-10T20:31:01.728Z,100327.72
2023-04-10T20:33:29.821Z,100331.78
2023-04-10T20:35:57.838Z,100328.97
2023-04-10T20:38:26.051Z,100324.03
2023-04-10T20:40:54.244Z,100323.47
2023-04-10T20:43:22.227Z,100317.56
2023-04-10T20:45:51.750Z,100310.44
2023-04-10T20:48:19.731Z,100302.72
2023-04-10T20:50:49.233Z,100298.06
2023-04-10T20:53:17.522Z,100286.09
2023-04-10T20:55:47.571Z,100292.09
2023-04-10T20:58:15.478Z,100281.41
2023-04-10T21:00:43.670Z,100286.50
2023-04-10T21:03:13.101Z,100287.34
2023-04-10T21:05:42.040Z,100285.66
2023-04-10T21:08:10.865Z,100266.19
2023-04-10T21:10:43.942Z,100272.94
2023-04-10T21:13:14.081Z,100271.44
2023-04-10T21:15:42.265Z,100274.34
2023-04-10T21:18:11.572Z,100275.75
2023-04-10T21:20:44.691Z,100273.50
2023-04-10T21:23:12.743Z,100263.38
2023-04-10T21:25:41.040Z,100259.34
2023-04-10T21:28:09.038Z,100251.34
2023-04-10T21:30:36.924Z,100247.34
2023-04-10T21:33:05.342Z,100232.41
2023-04-10T21:35:33.442Z,100235.62
2023-04-10T21:38:02.866Z,100234.72
2023-04-10T21:40:34.368Z,100225.16
2023-04-10T21:43:02.749Z,100214.09
2023-04-10T21:45:32.159Z,100215.59
2023-04-10T21:48:00.776Z,100214.41
2023-04-10T21:50:28.812Z,100224.84
2023-04-10T21:52:56.840Z,100214.16
2023-04-10T21:55:26.527Z,100213.91
2023-04-10T21:57:54.468Z,100208.56
2023-04-10T22:00:23.193Z,100212.34
2023-04-10T22:02:53.006Z,100210.97
2023-04-10T22:05:24.721Z,100204.91
2023-04-10T22:07:53.175Z,100198.12
2023-04-10T22:10:21.205Z,100199.34
2023-04-10T22:12:50.621Z,100192.31
2023-04-10T22:15:19.815Z,100184.53
2023-04-10T22:17:47.832Z,100178.19
2023-04-10T22:20:15.891Z,100170.72
2023-04-10T22:22:44.175Z,100157.31
2023-04-10T22:25:12.085Z,100154.53
2023-04-10T22:27:40.080Z,100157.31
2023-04-10T22:30:10.921Z,100140.50
2023-04-10T22:32:38.919Z,100144.28
2023-04-10T22:35:08.291Z,100147.34
2023-04-10T22:37:36.553Z,100139.91
2023-04-10T22:40:05.911Z,100130.34
2023-04-10T22:42:33.865Z,100126.09
2023-04-10T22:45:02.153Z,100123.16
2023-04-10T22:47:33.829Z,100113.88
2023-04-10T22:50:02.143Z,100111.69
2023-04-10T22:52:30.112Z,100108.88
2023-04-10T22:54:58.292Z,100111.78
2023-04-10T22:57:26.575Z,100103.75
2023-04-10T22:59:54.731Z,100103.16
2023-04-10T23:02:22.701Z,100088.59
2023-04-10T23:04:52.274Z,100081.25
2023-04-10T23:07:20.245Z,100075.56
2023-04-10T23:09:48.140Z,100076.19
2023-04-10T23:12:16.336Z,100073.41
2023-04-10T23:14:44.278Z,100075.72
2023-04-10T23:17:12.196Z,100065.88
2023-04-10T23:19:40.458Z,100055.03
2023-04-10T23:22:09.752Z,100043.69
2023-04-10T23:24:38.690Z,100040.75
2023-04-10T23:27:07.828Z,100030.06
2023-04-10T23:29:35.860Z,100022.84
2023-04-10T23:32:03.857Z,100020.81
2023-04-10T23:34:32.066Z,100011.31
2023-04-10T23:37:00.027Z,100004.78
2023-04-10T23:39:29.315Z,100001.38
2023-04-10T23:41:57.751Z,99992.87
2023-04-10T23:44:25.823Z,99986.91
2023-04-10T23:46:53.826Z,99983.47
2023-04-10T23:49:22.090Z,99981.38
2023-04-10T23:51:50.057Z,99981.00
2023-04-10T23:54:18.030Z,99979.13
2023-04-10T23:56:47.645Z,99978.31
2023-04-10T23:59:17.014Z,99980.00
